Time;durP1;ratioP1;P1;durP2;ratioP2;P2;SDS_P1;SDS_P2;PMS_P1;PMS_P2;Temp;Humidity;BMP_temperature;BMP_pressure;BME280_temperature;BME280_humidity;BME280_pressure;Samples;Min_cycle;Max_cycle;Signal;HPM_P1;HPM_P2
2022/04/18 00:01:56;;;;;;;8.00;4.60;;;6.30;99.90;;;;;;5014938;28;20441;-50
2022/04/18 00:04:21;;;;;;;10.13;4.30;;;6.20;99.90;;;;;;5040515;28;20237;-50
2022/04/18 00:06:47;;;;;;;5.53;4.30;;;6.20;99.90;;;;;;5039426;28;20644;-49
2022/04/18 00:09:13;;;;;;;8.20;4.43;;;6.20;99.90;;;;;;5015172;28;20656;-49
2022/04/18 00:11:38;;;;;;;7.40;4.47;;;6.10;99.90;;;;;;5036413;28;20645;-49
2022/04/18 00:14:05;;;;;;;6.17;4.00;;;6.10;99.90;;;;;;5031186;28;20198;-50
2022/04/18 00:16:30;;;;;;;6.30;4.50;;;6.10;99.90;;;;;;5044328;28;20190;-49
2022/04/18 00:18:56;;;;;;;7.47;4.57;;;6.00;99.90;;;;;;5031731;28;20969;-54
2022/04/18 00:21:23;;;;;;;7.53;4.63;;;6.00;99.90;;;;;;5035771;28;20195;-49
2022/04/18 00:23:49;;;;;;;6.13;4.37;;;5.90;99.90;;;;;;5031183;28;20207;-49
2022/04/18 00:26:15;;;;;;;7.20;4.57;;;5.90;99.90;;;;;;5036136;28;21061;-50
2022/04/18 00:28:41;;;;;;;6.67;4.63;;;5.90;99.90;;;;;;5034949;28;20433;-50
2022/04/18 00:31:06;;;;;;;8.10;4.60;;;5.90;99.90;;;;;;5035188;28;20437;-49
2022/04/18 00:33:33;;;;;;;6.77;4.80;;;5.90;99.90;;;;;;5020225;28;20201;-49
2022/04/18 00:35:59;;;;;;;5.07;4.50;;;5.90;99.90;;;;;;5030918;28;20186;-50
2022/04/18 00:38:24;;;;;;;9.23;4.87;;;5.80;99.90;;;;;;5030705;28;20987;-50
2022/04/18 00:40:50;;;;;;;8.57;5.50;;;5.90;99.90;;;;;;5030799;28;20201;-49
2022/04/18 00:43:16;;;;;;;5.93;4.73;;;5.80;99.90;;;;;;5038082;28;20238;-50
2022/04/18 00:45:41;;;;;;;7.30;4.70;;;5.80;99.90;;;;;;5032943;28;20190;-50
2022/04/18 00:48:07;;;;;;;6.47;4.70;;;5.80;99.90;;;;;;5034208;28;20229;-49
2022/04/18 00:50:35;;;;;;;10.17;6.07;;;5.70;99.90;;;;;;5036957;28;20194;-54
2022/04/18 00:53:03;;;;;;;39.33;17.50;;;5.70;99.90;;;;;;5031124;28;20437;-51
2022/04/18 00:55:32;;;;;;;32.00;15.47;;;5.70;99.90;;;;;;5028809;28;20437;-50
2022/04/18 00:58:00;;;;;;;10.17;6.00;;;5.70;99.90;;;;;;5032150;28;20444;-50
2022/04/18 01:00:25;;;;;;;10.63;6.20;;;5.70;99.90;;;;;;5032925;28;20434;-50
2022/04/18 01:02:51;;;;;;;9.23;5.50;;;5.60;99.90;;;;;;5033554;28;20460;-50
2022/04/18 01:05:18;;;;;;;8.47;5.03;;;5.50;99.90;;;;;;5032223;28;20174;-50
2022/04/18 01:07:43;;;;;;;8.10;4.93;;;5.50;99.90;;;;;;5036518;28;20466;-49
2022/04/18 01:10:09;;;;;;;7.93;5.07;;;5.50;99.90;;;;;;5030418;28;20433;-50
2022/04/18 01:12:35;;;;;;;9.03;5.33;;;5.40;99.90;;;;;;5031715;28;20187;-50
2022/04/18 01:15:01;;;;;;;8.77;5.80;;;5.40;99.90;;;;;;5031214;28;20426;-50
2022/04/18 01:17:27;;;;;;;8.30;5.03;;;5.40;99.90;;;;;;5030647;28;20646;-49
2022/04/18 01:19:52;;;;;;;8.67;5.27;;;5.30;99.90;;;;;;5029928;28;20187;-50
2022/04/18 01:22:19;;;;;;;9.23;5.67;;;5.20;99.90;;;;;;5035387;28;20445;-50
2022/04/18 01:30:15;;;;;;;10.37;6.20;;;5.20;99.90;;;;;;5017712;28;20417;-50
2022/04/18 01:32:40;;;;;;;8.87;5.47;;;5.20;99.90;;;;;;5037102;28;20428;-49
2022/04/18 01:35:06;;;;;;;11.60;6.37;;;5.10;99.90;;;;;;5030421;28;20445;-50
2022/04/18 01:37:32;;;;;;;9.53;6.17;;;5.10;99.90;;;;;;5035094;28;20182;-50
2022/04/18 01:39:58;;;;;;;9.10;6.00;;;5.10;99.90;;;;;;5030685;28;21188;-58
2022/04/18 01:42:23;;;;;;;9.60;5.80;;;5.10;99.90;;;;;;5034685;28;20676;-50
2022/04/18 01:44:49;;;;;;;12.10;7.10;;;5.00;99.90;;;;;;5030399;28;20187;-50
2022/04/18 01:47:14;;;;;;;9.60;6.37;;;5.00;99.90;;;;;;5034316;28;20199;-51
2022/04/18 01:49:40;;;;;;;8.97;6.07;;;5.00;99.90;;;;;;5030576;28;20241;-50
2022/04/18 01:52:06;;;;;;;9.30;5.80;;;4.90;99.90;;;;;;5031688;28;20261;-50
2022/04/18 01:54:32;;;;;;;13.00;7.10;;;5.00;99.90;;;;;;5034987;28;20262;-50
2022/04/18 01:56:57;;;;;;;11.00;6.50;;;4.90;99.90;;;;;;5030503;28;20187;-50
2022/04/18 01:59:23;;;;;;;9.10;6.30;;;4.90;99.90;;;;;;5034143;28;20195;-50
2022/04/18 02:01:49;;;;;;;13.13;7.20;;;4.90;99.90;;;;;;5033259;28;20203;-50
2022/04/18 02:04:15;;;;;;;9.33;5.83;;;4.90;99.90;;;;;;5029046;28;20461;-50
2022/04/18 02:06:41;;;;;;;8.77;5.80;;;4.80;99.90;;;;;;5029902;28;20904;-49
2022/04/18 02:09:06;;;;;;;10.87;6.20;;;4.90;99.90;;;;;;5029024;28;20175;-50
2022/04/18 02:11:32;;;;;;;6.67;5.43;;;4.80;99.90;;;;;;5034765;28;20656;-50
2022/04/18 02:13:58;;;;;;;10.57;6.00;;;4.80;99.90;;;;;;5028578;28;20187;-55
2022/04/18 02:16:24;;;;;;;9.47;6.50;;;4.70;99.90;;;;;;5030148;28;20191;-51
2022/04/18 02:18:49;;;;;;;13.10;6.40;;;4.60;99.90;;;;;;5029073;28;21245;-51
2022/04/18 02:21:16;;;;;;;10.03;6.43;;;4.60;99.90;;;;;;5030449;28;20179;-50
2022/04/18 02:23:42;;;;;;;10.10;6.33;;;4.50;99.90;;;;;;5029168;28;20268;-50
2022/04/18 02:26:08;;;;;;;11.43;6.80;;;4.50;99.90;;;;;;5018899;28;20452;-51
2022/04/18 02:28:35;;;;;;;10.00;6.43;;;4.40;99.90;;;;;;5029105;28;20429;-50
2022/04/18 02:31:01;;;;;;;12.20;6.60;;;4.40;99.90;;;;;;5030352;28;20422;-51
2022/04/18 02:33:27;;;;;;;12.20;6.80;;;4.40;99.90;;;;;;5030948;28;20469;-50
2022/04/18 02:35:53;;;;;;;14.67;7.27;;;4.30;99.90;;;;;;5042461;28;20429;-50
2022/04/18 02:38:18;;;;;;;15.43;6.93;;;4.40;99.90;;;;;;5030040;28;20187;-50
2022/04/18 02:40:44;;;;;;;13.80;6.77;;;4.30;99.90;;;;;;5029485;28;20195;-50
2022/04/18 02:43:10;;;;;;;11.80;6.70;;;4.30;99.90;;;;;;5029241;28;20207;-50
2022/04/18 02:45:35;;;;;;;17.10;6.70;;;4.30;99.90;;;;;;5029987;28;20195;-50
2022/04/18 02:48:01;;;;;;;12.90;6.60;;;4.30;99.90;;;;;;5028622;28;20274;-50
2022/04/18 02:50:27;;;;;;;9.87;7.23;;;4.30;99.90;;;;;;5009393;28;94453;-50
2022/04/18 02:52:53;;;;;;;11.80;7.77;;;4.40;99.90;;;;;;5030244;28;20429;-51
2022/04/18 02:55:19;;;;;;;11.33;7.17;;;4.30;99.90;;;;;;5035116;28;20542;-50
2022/04/18 02:57:45;;;;;;;11.03;6.70;;;4.30;99.90;;;;;;5032760;28;20457;-51
2022/04/18 03:00:11;;;;;;;12.77;7.37;;;4.30;99.90;;;;;;5026830;28;20464;-51
2022/04/18 03:02:38;;;;;;;11.50;7.27;;;4.30;99.90;;;;;;5029373;28;20218;-51
2022/04/18 03:05:05;;;;;;;13.83;7.90;;;4.30;99.90;;;;;;5030453;28;20775;-50
2022/04/18 03:07:32;;;;;;;11.27;6.93;;;4.30;99.90;;;;;;5029312;28;20418;-51
2022/04/18 03:09:58;;;;;;;14.83;7.87;;;4.30;99.90;;;;;;5030100;28;20426;-51
2022/04/18 03:12:23;;;;;;;11.20;7.70;;;4.30;99.90;;;;;;5029606;28;20437;-51
2022/04/18 03:14:49;;;;;;;10.87;6.80;;;4.20;99.90;;;;;;5029171;28;20286;-51
2022/04/18 03:17:19;;;;;;;14.13;7.50;;;4.20;99.90;;;;;;5031984;28;20653;-50
2022/04/18 03:19:45;;;;;;;9.90;6.70;;;4.20;99.90;;;;;;5038083;28;20421;-50
2022/04/18 03:22:10;;;;;;;11.67;8.10;;;4.10;99.90;;;;;;5030333;28;20433;-50
2022/04/18 03:24:36;;;;;;;14.97;7.70;;;4.10;99.90;;;;;;5035715;28;20224;-51
2022/04/18 03:27:03;;;;;;;15.33;7.60;;;4.00;99.90;;;;;;5039130;28;20206;-51
2022/04/18 03:29:29;;;;;;;11.13;7.43;;;4.00;99.90;;;;;;5031134;28;20174;-51
2022/04/18 03:31:54;;;;;;;15.53;7.93;;;4.00;99.90;;;;;;5029945;28;20965;-51
2022/04/18 03:34:21;;;;;;;11.97;7.77;;;4.00;99.90;;;;;;5014422;28;20421;-51
2022/04/18 03:42:15;;;;;;;13.17;8.23;;;4.00;99.90;;;;;;5040138;28;20452;-50
2022/04/18 03:44:45;;;;;;;15.47;8.30;;;4.00;99.90;;;;;;5049177;28;20468;-51
2022/04/18 03:47:11;;;;;;;16.70;8.40;;;4.00;99.90;;;;;;5033005;28;20228;-50
2022/04/18 03:49:37;;;;;;;13.07;8.40;;;4.00;99.90;;;;;;5036473;28;20464;-50
2022/04/18 03:52:03;;;;;;;13.53;8.60;;;4.00;99.90;;;;;;5037131;28;20441;-49
2022/04/18 03:54:28;;;;;;;14.60;8.93;;;4.00;99.90;;;;;;5034095;28;20782;-51
2022/04/18 03:56:54;;;;;;;10.00;7.13;;;4.00;99.90;;;;;;5032213;28;20213;-50
2022/04/18 03:59:19;;;;;;;14.07;8.60;;;4.00;99.90;;;;;;5044441;28;20621;-51
2022/04/18 04:01:45;;;;;;;16.87;8.77;;;4.00;99.90;;;;;;5038638;28;20238;-51
2022/04/18 04:04:11;;;;;;;16.17;8.80;;;4.00;99.90;;;;;;5033997;28;20223;-51
2022/04/18 04:06:36;;;;;;;15.03;8.93;;;4.00;99.90;;;;;;5032026;28;20190;-51
2022/04/18 04:09:02;;;;;;;14.10;9.47;;;4.10;99.90;;;;;;5034878;28;20716;-50
2022/04/18 04:11:27;;;;;;;18.87;10.33;;;4.10;99.90;;;;;;5032432;28;20187;-51
2022/04/18 04:13:53;;;;;;;15.20;8.97;;;4.10;99.90;;;;;;5045079;28;20194;-50
2022/04/18 04:16:18;;;;;;;12.83;8.60;;;4.10;99.90;;;;;;5032278;28;20614;-50
2022/04/18 04:18:44;;;;;;;16.37;9.13;;;4.10;99.90;;;;;;5033061;28;20179;-50
2022/04/18 04:21:10;;;;;;;14.60;9.27;;;4.10;99.90;;;;;;5033228;28;20252;-51
2022/04/18 04:23:35;;;;;;;15.10;9.70;;;4.10;99.90;;;;;;5032499;28;20234;-50
2022/04/18 04:26:01;;;;;;;13.80;8.90;;;4.10;99.90;;;;;;5038736;28;20653;-51
2022/04/18 04:28:26;;;;;;;14.37;8.77;;;4.10;99.90;;;;;;5033134;28;20209;-51
2022/04/18 04:30:52;;;;;;;16.33;8.80;;;4.00;99.90;;;;;;5032765;28;20215;-51
2022/04/18 04:33:17;;;;;;;13.10;8.87;;;4.00;99.90;;;;;;5031617;28;20219;-51
2022/04/18 04:35:43;;;;;;;13.47;9.10;;;4.00;99.90;;;;;;5039919;28;20281;-50
2022/04/18 04:38:09;;;;;;;16.67;9.77;;;4.00;99.90;;;;;;5032654;28;20191;-50
2022/04/18 04:40:34;;;;;;;13.80;9.23;;;4.00;99.90;;;;;;5036234;28;20339;-50
2022/04/18 04:42:59;;;;;;;11.50;8.30;;;4.00;99.90;;;;;;5052617;28;20202;-51
2022/04/18 04:45:25;;;;;;;16.60;9.37;;;4.00;99.90;;;;;;5040248;28;20206;-51
2022/04/18 04:47:50;;;;;;;17.13;9.63;;;3.90;99.90;;;;;;5032710;28;20198;-50
2022/04/18 04:50:16;;;;;;;13.70;9.23;;;3.90;99.90;;;;;;5037267;28;20264;-51
2022/04/18 04:52:41;;;;;;;15.53;9.37;;;3.90;99.90;;;;;;5032256;28;20544;-51
2022/04/18 04:55:08;;;;;;;16.13;9.30;;;3.90;99.90;;;;;;5038921;28;20186;-52
2022/04/18 04:57:34;;;;;;;20.20;8.67;;;3.90;99.90;;;;;;5019112;28;20274;-51
2022/04/18 04:59:59;;;;;;;16.87;9.40;;;4.00;99.90;;;;;;5038480;28;20536;-55
2022/04/18 05:02:25;;;;;;;13.17;8.97;;;4.00;99.90;;;;;;5032334;28;20266;-47
2022/04/18 05:04:51;;;;;;;18.43;9.20;;;4.00;99.90;;;;;;5032805;28;20220;-47
2022/04/18 05:07:16;;;;;;;18.57;9.97;;;4.00;99.90;;;;;;5031783;28;20230;-49
2022/04/18 05:09:42;;;;;;;13.87;8.90;;;4.00;99.90;;;;;;5034721;28;20428;-47
2022/04/18 05:12:09;;;;;;;14.67;9.33;;;4.00;99.90;;;;;;5018722;28;20179;-47
2022/04/18 05:14:34;;;;;;;16.57;9.60;;;4.00;99.90;;;;;;5032008;28;20194;-47
2022/04/18 05:17:02;;;;;;;14.10;8.60;;;4.00;99.90;;;;;;5043566;28;20428;-47
2022/04/18 05:19:27;;;;;;;15.37;9.53;;;4.10;99.90;;;;;;5031273;28;20194;-47
2022/04/18 05:21:53;;;;;;;15.20;9.83;;;4.20;99.90;;;;;;5031549;28;20511;-47
2022/04/18 05:24:18;;;;;;;16.40;11.13;;;4.30;99.90;;;;;;5034972;28;20265;-47
2022/04/18 05:26:46;;;;;;;21.30;11.43;;;4.40;99.90;;;;;;5032869;28;20187;-47
2022/04/18 05:29:12;;;;;;;17.23;10.57;;;4.50;99.90;;;;;;5043755;28;20190;-48
2022/04/18 05:31:37;;;;;;;18.23;10.50;;;4.70;99.90;;;;;;5037631;28;20772;-47
2022/04/18 05:34:03;;;;;;;15.97;9.67;;;4.90;99.90;;;;;;5039632;28;20202;-47
2022/04/18 05:36:29;;;;;;;15.20;10.50;;;5.10;99.90;;;;;;5035470;28;20191;-48
2022/04/18 05:38:55;;;;;;;21.57;10.30;;;5.20;99.90;;;;;;5037779;28;20471;-50
2022/04/18 05:41:20;;;;;;;16.07;9.90;;;5.40;99.90;;;;;;5031159;28;20206;-50
2022/04/18 05:43:49;;;;;;;18.83;11.20;;;5.60;99.90;;;;;;5031432;28;20461;-50
2022/04/18 05:46:15;;;;;;;19.43;11.10;;;5.80;99.90;;;;;;5034698;28;20184;-50
2022/04/18 05:48:40;;;;;;;18.33;11.60;;;6.00;99.90;;;;;;5030522;28;20519;-50
2022/04/18 05:51:06;;;;;;;16.80;10.13;;;6.20;99.90;;;;;;5030999;28;20182;-50
2022/04/18 05:53:32;;;;;;;15.17;9.87;;;6.50;99.90;;;;;;5031287;28;20179;-47
2022/04/18 05:55:57;;;;;;;19.53;10.60;;;6.70;99.90;;;;;;5035689;28;20524;-47
2022/04/18 05:58:23;;;;;;;15.73;9.70;;;7.00;99.90;;;;;;5030424;28;20237;-47
2022/04/18 06:00:48;;;;;;;14.50;9.17;;;7.30;99.90;;;;;;5030227;28;20202;-47
2022/04/18 06:03:14;;;;;;;13.83;9.30;;;7.60;99.90;;;;;;5030166;28;20203;-55
2022/04/18 06:05:39;;;;;;;16.30;10.80;;;7.80;99.90;;;;;;5039244;28;20220;-47
2022/04/18 06:08:05;;;;;;;15.53;9.73;;;8.10;99.90;;;;;;5032146;28;20245;-47
2022/04/18 06:10:31;;;;;;;18.57;10.80;;;8.30;99.90;;;;;;5030365;28;20187;-47
2022/04/18 06:12:56;;;;;;;21.20;10.43;;;8.50;99.90;;;;;;5032126;28;20187;-51
2022/04/18 06:15:22;;;;;;;17.20;10.70;;;8.90;99.90;;;;;;5031154;28;20199;-50
2022/04/18 06:17:47;;;;;;;16.83;10.63;;;9.10;99.90;;;;;;5041783;28;20297;-49
2022/04/18 06:20:13;;;;;;;16.37;11.13;;;9.30;99.90;;;;;;5030091;28;20199;-51
2022/04/18 06:22:38;;;;;;;18.50;11.33;;;9.50;99.90;;;;;;5032733;28;20194;-48
2022/04/18 06:25:04;;;;;;;17.97;10.80;;;9.70;99.90;;;;;;5035617;28;20171;-50
2022/04/18 06:27:30;;;;;;;18.43;10.73;;;10.00;99.90;;;;;;5029800;28;20241;-50
2022/04/18 06:29:56;;;;;;;14.00;10.20;;;10.20;99.90;;;;;;5032655;28;20461;-51
2022/04/18 06:32:24;;;;;;;16.10;10.47;;;10.40;99.90;;;;;;5030538;28;20183;-50
2022/04/18 06:34:50;;;;;;;17.13;11.30;;;10.60;99.90;;;;;;5031982;28;20449;-50
2022/04/18 06:37:15;;;;;;;15.00;11.10;;;10.90;99.90;;;;;;5039655;28;20434;-50
2022/04/18 06:39:43;;;;;;;14.30;9.57;;;11.00;99.90;;;;;;5029928;28;20565;-49
2022/04/18 06:42:08;;;;;;;14.70;9.47;;;11.20;99.90;;;;;;5031375;28;20664;-49
2022/04/18 06:44:34;;;;;;;16.87;11.20;;;11.40;99.90;;;;;;5029626;28;20469;-50
2022/04/18 06:47:00;;;;;;;15.83;11.03;;;11.50;99.90;;;;;;5031000;28;20190;-50
2022/04/18 06:49:25;;;;;;;14.53;10.13;;;11.60;99.90;;;;;;5029164;28;20230;-49
2022/04/18 06:51:51;;;;;;;17.07;11.37;;;11.80;99.90;;;;;;5034870;28;20979;-49
2022/04/18 06:54:16;;;;;;;15.50;10.80;;;12.00;99.90;;;;;;5028652;28;20229;-50
2022/04/18 06:57:00;;;;;;;18.77;10.80;;;12.00;99.90;;;;;;5034801;28;20182;-50
2022/04/18 06:59:27;;;;;;;15.17;10.80;;;12.10;99.90;;;;;;5036859;28;20177;-49
2022/04/18 07:01:54;;;;;;;15.97;9.97;;;12.40;99.90;;;;;;5030684;28;20906;-50
2022/04/18 07:04:20;;;;;;;15.37;10.27;;;12.70;99.90;;;;;;5029311;28;20647;-49
2022/04/18 07:06:45;;;;;;;16.63;10.53;;;12.90;99.90;;;;;;5036412;28;20512;-50
2022/04/18 07:09:11;;;;;;;15.27;10.47;;;13.00;99.90;;;;;;5034267;28;20605;-49
2022/04/18 07:11:37;;;;;;;16.67;10.33;;;13.10;99.90;;;;;;5029289;28;20187;-50
2022/04/18 07:14:03;;;;;;;15.63;10.70;;;13.30;99.90;;;;;;5034805;28;20644;-49
2022/04/18 07:16:32;;;;;;;14.00;9.97;;;13.50;99.90;;;;;;5034788;28;20434;-50
2022/04/18 07:18:58;;;;;;;15.87;10.40;;;13.90;99.90;;;;;;5030869;28;20214;-51
2022/04/18 07:21:25;;;;;;;15.93;10.10;;;14.10;99.90;;;;;;5036898;28;20449;-49
2022/04/18 07:23:50;;;;;;;17.47;10.13;;;13.90;99.90;;;;;;5044527;28;20465;-50
2022/04/18 07:26:16;;;;;;;13.67;8.57;;;14.10;99.90;;;;;;5044571;28;20491;-49
2022/04/18 07:28:41;;;;;;;19.40;10.20;;;14.10;99.90;;;;;;5036618;28;20695;-49
2022/04/18 07:31:07;;;;;;;14.10;10.07;;;14.40;99.90;;;;;;5046004;28;20696;-50
2022/04/18 07:33:34;;;;;;;14.03;9.87;;;14.70;99.90;;;;;;5033207;28;20179;-50
2022/04/18 07:35:59;;;;;;;14.20;9.70;;;14.90;99.90;;;;;;5033752;28;20271;-50
2022/04/18 07:41:09;;;;;;;14.17;9.80;;;15.40;99.90;;;;;;5035526;28;20263;-49
2022/04/18 07:43:35;;;;;;;13.13;9.30;;;15.70;99.90;;;;;;5034373;28;20564;-50
2022/04/18 07:46:02;;;;;;;14.33;9.77;;;15.80;99.90;;;;;;5045562;28;20635;-48
2022/04/18 07:48:29;;;;;;;14.30;9.67;;;16.20;99.90;;;;;;5053281;28;20974;-49
2022/04/18 07:53:39;;;;;;;12.97;8.60;;;16.60;99.90;;;;;;5033641;28;20425;-49
2022/04/18 07:56:05;;;;;;;15.57;10.00;;;16.90;99.90;;;;;;5042634;28;20437;-49
2022/04/18 07:58:30;;;;;;;15.80;10.27;;;17.10;99.90;;;;;;5034366;28;20171;-50
2022/04/18 08:00:56;;;;;;;12.87;9.27;;;17.00;99.90;;;;;;5043280;28;20187;-50
2022/04/18 08:03:21;;;;;;;14.27;9.30;;;17.10;99.90;;;;;;5034004;28;20242;-50
2022/04/18 08:05:47;;;;;;;15.00;9.93;;;17.20;99.90;;;;;;5045953;28;20181;-50
2022/04/18 08:08:12;;;;;;;18.30;9.17;;;17.50;99.90;;;;;;5051441;28;20253;-50
2022/04/18 08:10:38;;;;;;;12.10;9.20;;;17.80;99.90;;;;;;5034569;28;20233;-50
2022/04/18 08:13:04;;;;;;;16.53;10.03;;;17.90;99.90;;;;;;5047354;28;20189;-50
2022/04/18 08:15:31;;;;;;;16.40;9.47;;;17.60;99.90;;;;;;5048539;28;20181;-49
2022/04/18 08:17:57;;;;;;;12.40;9.50;;;17.80;99.90;;;;;;5034391;28;20532;-50
2022/04/18 08:20:23;;;;;;;11.43;8.63;;;18.20;99.90;;;;;;5035450;28;20505;-50
2022/04/18 08:22:49;;;;;;;11.97;8.30;;;18.10;99.90;;;;;;5052591;28;20202;-50
2022/04/18 08:25:15;;;;;;;16.23;9.43;;;18.30;99.90;;;;;;5017663;28;20437;-50
2022/04/18 08:27:40;;;;;;;12.60;9.40;;;18.40;99.90;;;;;;5033304;28;20809;-50
2022/04/18 08:30:07;;;;;;;15.37;9.27;;;18.30;99.90;;;;;;5032360;28;20249;-49
2022/04/18 08:32:36;;;;;;;13.37;9.20;;;17.80;99.90;;;;;;5033537;28;20156;-50
2022/04/18 08:35:02;;;;;;;14.87;9.17;;;17.70;99.90;;;;;;5032887;28;20434;-50
2022/04/18 08:37:27;;;;;;;13.07;7.80;;;18.10;99.90;;;;;;5032602;28;20402;-50
2022/04/18 08:39:53;;;;;;;12.60;8.50;;;18.60;99.90;;;;;;5032650;28;20234;-50
2022/04/18 08:42:24;;;;;;;13.53;9.17;;;18.80;99.90;;;;;;5033154;28;20258;-50
2022/04/18 08:44:54;;;;;;;11.40;8.40;;;19.10;99.90;;;;;;5032917;28;20207;-50
2022/04/18 08:52:50;;;;;;;12.23;9.03;;;19.70;99.90;;;;;;5033043;28;20874;-50
2022/04/18 08:55:16;;;;;;;11.27;7.50;;;19.50;99.90;;;;;;5031558;28;20441;-50
2022/04/18 08:57:42;;;;;;;13.50;8.97;;;19.40;99.90;;;;;;5032652;28;20418;-50
2022/04/18 09:00:09;;;;;;;14.63;9.50;;;19.40;99.90;;;;;;5032592;28;20479;-50
2022/04/18 09:02:35;;;;;;;12.17;8.97;;;19.50;99.90;;;;;;5032099;28;20202;-50
2022/04/18 09:05:01;;;;;;;12.70;8.60;;;19.60;99.90;;;;;;5032578;28;20422;-50
2022/04/18 09:07:27;;;;;;;13.20;8.90;;;19.30;99.90;;;;;;5030237;28;20426;-50
2022/04/18 09:09:56;;;;;;;13.10;9.00;;;19.30;99.90;;;;;;5032191;28;20887;-49
2022/04/18 09:12:24;;;;;;;11.50;8.80;;;19.30;99.90;;;;;;5031933;28;20625;-50
2022/04/18 09:14:50;;;;;;;13.90;9.60;;;19.10;99.90;;;;;;5032447;28;20934;-50
2022/04/18 09:17:35;;;;;;;15.57;9.60;;;18.90;99.90;;;;;;5032133;28;20422;-50
2022/04/18 09:20:10;;;;;;;15.90;9.17;;;19.00;99.90;;;;;;5032752;28;20990;-51
2022/04/18 09:22:43;;;;;;;13.60;8.20;;;19.20;99.90;;;;;;5030590;28;21007;-50
2022/04/18 09:25:19;;;;;;;12.03;8.47;;;19.10;99.90;;;;;;5031984;28;20433;-50
2022/04/18 09:27:58;;;;;;;14.07;8.03;;;19.30;99.90;;;;;;5032207;28;21039;-50
2022/04/18 09:30:30;;;;;;;13.60;8.90;;;19.50;99.90;;;;;;5031732;28;20949;-50
2022/04/18 09:33:06;;;;;;;16.50;9.00;;;19.50;99.90;;;;;;5031348;28;20453;-50
2022/04/18 09:35:32;;;;;;;10.83;8.80;;;19.30;99.90;;;;;;5027428;28;20434;-50
2022/04/18 09:38:04;;;;;;;14.73;10.03;;;18.90;99.90;;;;;;5030700;28;20456;-50
2022/04/18 09:40:33;;;;;;;15.00;9.70;;;18.60;99.90;;;;;;5029987;28;20516;-49
2022/04/18 09:42:59;;;;;;;14.13;10.00;;;18.20;99.90;;;;;;5030900;28;20493;-50
2022/04/18 09:45:25;;;;;;;12.67;9.47;;;17.90;99.90;;;;;;5030179;28;20477;-49
2022/04/18 09:48:03;;;;;;;13.60;8.83;;;17.90;99.90;;;;;;5030940;28;20223;-49
2022/04/18 09:53:20;;;;;;;14.20;9.63;;;17.90;99.90;;;;;;5028352;28;21719;-49
2022/04/18 09:55:47;;;;;;;12.03;8.20;;;17.60;99.90;;;;;;5031001;28;20424;-50
2022/04/18 09:58:13;;;;;;;13.50;8.27;;;17.20;99.90;;;;;;5031453;28;20583;-49
2022/04/18 10:00:40;;;;;;;13.00;8.30;;;17.10;99.90;;;;;;5030657;28;20449;-50
2022/04/18 10:03:07;;;;;;;9.93;8.30;;;17.10;99.90;;;;;;5031394;28;20493;-49
2022/04/18 10:05:33;;;;;;;13.27;9.50;;;17.00;99.90;;;;;;5030988;28;20437;-49
2022/04/18 10:08:03;;;;;;;11.37;8.10;;;16.90;99.90;;;;;;5030638;28;20409;-49
2022/04/18 10:10:34;;;;;;;13.60;8.50;;;16.90;99.90;;;;;;5026640;28;20469;-49
2022/04/18 10:13:03;;;;;;;17.20;8.90;;;17.00;99.90;;;;;;5030692;28;20825;-50
2022/04/18 10:15:29;;;;;;;11.50;7.80;;;17.40;99.90;;;;;;5028768;28;20429;-51
2022/04/18 10:17:56;;;;;;;10.80;7.93;;;17.90;99.90;;;;;;5030585;28;20442;-50
2022/04/18 10:20:44;;;;;;;13.00;8.63;;;18.30;99.90;;;;;;5030879;28;20541;-51
2022/04/18 10:23:30;;;;;;;11.53;7.70;;;18.60;99.90;;;;;;5029962;28;20943;-51
2022/04/18 10:26:30;;;;;;;12.50;8.17;;;18.90;99.90;;;;;;5030005;28;20430;-50
2022/04/18 10:29:00;;;;;;;12.70;8.33;;;19.70;99.90;;;;;;5027507;28;21073;-50
2022/04/18 10:31:39;;;;;;;13.30;9.37;;;20.10;99.90;;;;;;5025884;28;20444;-50
2022/04/18 10:34:05;;;;;;;16.23;7.93;;;20.10;99.90;;;;;;5028022;28;20547;-50
2022/04/18 10:36:32;;;;;;;13.03;8.90;;;20.10;99.90;;;;;;5038408;28;20765;-50
2022/04/18 10:39:05;;;;;;;11.63;7.50;;;20.20;99.90;;;;;;5030744;28;20467;-50
2022/04/18 10:41:45;;;;;;;11.20;8.77;;;20.50;99.90;;;;;;5035384;28;20430;-51
2022/04/18 10:44:15;;;;;;;11.50;7.70;;;20.50;99.90;;;;;;5028821;28;20986;-51
2022/04/18 10:46:56;;;;;;;10.27;7.90;;;20.90;99.90;;;;;;5029926;28;20469;-50
2022/04/18 10:49:31;;;;;;;13.70;9.60;;;21.10;99.90;;;;;;5030238;28;20466;-50
2022/04/18 10:52:05;;;;;;;12.10;9.50;;;21.40;99.90;;;;;;5030772;28;20943;-50
2022/04/18 10:54:31;;;;;;;14.70;9.40;;;21.20;99.90;;;;;;5029940;28;20907;-50
2022/04/18 10:56:59;;;;;;;13.20;7.90;;;21.50;99.90;;;;;;5030247;28;20449;-51
2022/04/18 10:59:34;;;;;;;11.07;7.90;;;21.50;99.90;;;;;;5029642;28;20805;-50
2022/04/18 11:02:03;;;;;;;11.63;8.23;;;21.50;99.90;;;;;;5029424;28;20426;-51
2022/04/18 11:04:38;;;;;;;10.57;8.00;;;21.80;99.90;;;;;;5030251;28;20464;-50
2022/04/18 11:07:05;;;;;;;10.10;7.70;;;22.30;99.90;;;;;;5030930;28;20512;-51
2022/04/18 11:09:35;;;;;;;9.63;7.53;;;22.50;99.90;;;;;;5030462;28;20434;-50
2022/04/18 11:12:12;;;;;;;9.80;6.90;;;22.90;99.90;;;;;;5030974;28;20418;-50
2022/04/18 11:14:40;;;;;;;11.17;7.80;;;23.00;99.90;;;;;;5030590;28;20852;-51
2022/04/18 11:17:09;;;;;;;8.97;6.93;;;23.00;99.90;;;;;;5030128;28;20942;-50
2022/04/18 11:19:39;;;;;;;9.13;6.70;;;23.20;99.90;;;;;;5029799;28;21019;-50
2022/04/18 11:22:24;;;;;;;9.90;6.60;;;23.10;99.90;;;;;;5030630;28;20442;-50
2022/04/18 11:24:49;;;;;;;9.73;7.50;;;22.70;99.90;;;;;;5030022;28;20452;-50
2022/04/18 11:27:17;;;;;;;8.93;7.10;;;22.60;99.90;;;;;;5031267;28;20497;-50
2022/04/18 11:29:45;;;;;;;8.53;6.30;;;23.00;99.90;;;;;;5029954;28;20183;-51
2022/04/18 11:32:16;;;;;;;9.80;7.20;;;23.20;99.90;;;;;;5029387;28;20438;-50
2022/04/18 11:34:47;;;;;;;7.60;5.73;;;23.50;99.90;;;;;;5030000;28;20432;-50
2022/04/18 11:37:46;;;;;;;8.37;5.83;;;23.50;99.90;;;;;;5030741;28;21131;-51
2022/04/18 11:40:14;;;;;;;7.00;5.00;;;23.70;99.90;;;;;;5010529;28;20441;-51
2022/04/18 11:42:40;;;;;;;8.37;6.30;;;23.60;99.90;;;;;;5030431;28;20521;-50
2022/04/18 11:45:08;;;;;;;9.20;6.70;;;23.70;99.90;;;;;;5030044;28;20445;-51
2022/04/18 11:47:47;;;;;;;9.53;7.13;;;23.50;99.90;;;;;;5030083;28;20919;-51
2022/04/18 11:50:21;;;;;;;9.70;6.23;;;23.50;99.90;;;;;;5028614;28;20523;-51
2022/04/18 11:52:48;;;;;;;8.67;5.60;;;23.70;99.90;;;;;;5030136;28;20417;-51
2022/04/18 11:55:17;;;;;;;8.20;5.77;;;24.00;99.90;;;;;;5029809;28;20457;-51
2022/04/18 11:57:44;;;;;;;7.13;5.33;;;23.70;99.90;;;;;;5020941;28;20448;-52
2022/04/18 12:00:14;;;;;;;6.53;4.60;;;23.70;99.90;;;;;;5029220;28;20767;-52
2022/04/18 12:08:13;;;;;;;7.00;4.17;;;24.20;99.90;;;;;;5027736;28;20425;-50
2022/04/18 12:10:44;;;;;;;5.57;4.30;;;24.20;99.90;;;;;;5031657;28;20903;-51
2022/04/18 12:13:12;;;;;;;5.40;3.63;;;24.10;99.90;;;;;;5030656;28;20190;-51
2022/04/18 12:15:39;;;;;;;7.03;4.47;;;24.30;99.90;;;;;;5032348;28;20471;-51
2022/04/18 12:18:08;;;;;;;8.03;4.90;;;24.10;99.90;;;;;;5031400;28;20919;-52
2022/04/18 12:20:34;;;;;;;8.53;4.50;;;24.10;99.90;;;;;;5031924;28;21360;-51
2022/04/18 12:23:02;;;;;;;9.13;5.00;;;23.80;99.90;;;;;;5032262;28;20460;-51
2022/04/18 12:25:32;;;;;;;7.63;5.20;;;23.40;99.90;;;;;;5029444;28;20199;-51
2022/04/18 12:28:03;;;;;;;6.00;4.60;;;23.60;99.90;;;;;;5027010;28;20442;-51
2022/04/18 12:30:29;;;;;;;5.90;4.43;;;24.20;99.90;;;;;;5033807;28;20598;-51
2022/04/18 12:32:54;;;;;;;6.20;4.00;;;23.80;99.90;;;;;;5031107;28;21073;-51
2022/04/18 12:35:41;;;;;;;8.20;4.67;;;23.70;99.90;;;;;;5027239;28;20191;-51
2022/04/18 12:38:11;;;;;;;6.13;4.70;;;24.00;99.90;;;;;;5026743;28;20834;-51
2022/04/18 12:40:54;;;;;;;6.80;4.97;;;24.20;99.90;;;;;;5032509;28;20430;-51
2022/04/18 12:43:19;;;;;;;6.37;4.43;;;23.80;99.90;;;;;;5035088;28;20453;-51
2022/04/18 12:45:52;;;;;;;7.40;5.10;;;24.00;99.90;;;;;;5031292;28;20441;-51
2022/04/18 12:48:48;;;;;;;6.73;4.20;;;24.00;99.90;;;;;;5028825;28;20199;-51
2022/04/18 12:51:14;;;;;;;4.83;3.90;;;24.60;99.90;;;;;;5011792;28;20446;-50
2022/04/18 12:53:44;;;;;;;5.40;3.60;;;24.90;99.90;;;;;;5011581;28;20566;-50
2022/04/18 12:56:10;;;;;;;7.70;4.90;;;24.50;99.90;;;;;;5011440;28;20249;-51
2022/04/18 12:58:39;;;;;;;5.43;3.83;;;23.90;99.90;;;;;;5009807;28;20474;-51
2022/04/18 13:01:05;;;;;;;5.17;4.00;;;23.60;99.90;;;;;;5009585;28;20442;-51
2022/04/18 13:03:43;;;;;;;5.60;4.07;;;23.60;99.90;;;;;;5009749;28;20990;-51
2022/04/18 13:06:09;;;;;;;6.00;4.17;;;24.10;99.90;;;;;;5009916;28;20438;-50
2022/04/18 13:08:40;;;;;;;5.97;4.30;;;24.40;99.90;;;;;;5010545;28;20438;-52
2022/04/18 13:11:07;;;;;;;5.53;4.00;;;24.60;99.90;;;;;;5003187;28;20948;-51
2022/04/18 13:13:32;;;;;;;6.10;4.27;;;24.70;99.90;;;;;;5011782;28;20449;-51
2022/04/18 13:16:18;;;;;;;5.37;3.90;;;24.80;99.90;;;;;;5010969;28;20450;-51